sensor_id;sensor_type;location;lat;lon;timestamp;pressure;altitude;pressure_sealevel;temperature;humidity
64844;BME280;51310;52.198;5.422;2024-03-22T00:01:54;101915.81;;;10.68;100.00
64844;BME280;51310;52.198;5.422;2024-03-22T00:04:22;101921.09;;;10.69;100.00
64844;BME280;51310;52.198;5.422;2024-03-22T00:06:49;101914.00;;;10.68;100.00
64844;BME280;51310;52.198;5.422;2024-03-22T00:09:16;101911.28;;;10.70;100.00
64844;BME280;51310;52.198;5.422;2024-03-22T00:11:44;101901.94;;;10.59;100.00
64844;BME280;51310;52.198;5.422;2024-03-22T00:14:10;101898.34;;;10.60;100.00
64844;BME280;51310;52.198;5.422;2024-03-22T00:16:37;101886.69;;;10.61;100.00
64844;BME280;51310;52.198;5.422;2024-03-22T00:19:04;101886.69;;;10.61;100.00
64844;BME280;51310;52.198;5.422;2024-03-22T00:21:30;101867.47;;;10.53;100.00
64844;BME280;51310;52.198;5.422;2024-03-22T00:23:57;101878.84;;;10.58;100.00
64844;BME280;51310;52.198;5.422;2024-03-22T00:26:23;101874.56;;;10.54;100.00
64844;BME280;51310;52.198;5.422;2024-03-22T00:28:49;101863.78;;;10.56;100.00
64844;BME280;51310;52.198;5.422;2024-03-22T00:31:15;101867.19;;;10.59;100.00
64844;BME280;51310;52.198;5.422;2024-03-22T00:33:41;101855.97;;;10.51;100.00
64844;BME280;51310;52.198;5.422;2024-03-22T00:36:08;101870.88;;;10.57;100.00
64844;BME280;51310;52.198;5.422;2024-03-22T00:38:34;101848.75;;;10.53;100.00
64844;BME280;51310;52.198;5.422;2024-03-22T00:41:00;101819.78;;;10.44;100.00
64844;BME280;51310;52.198;5.422;2024-03-22T00:43:26;101838.06;;;10.53;100.00
64844;BME280;51310;52.198;5.422;2024-03-22T00:45:52;101823.25;;;10.46;100.00
64844;BME280;51310;52.198;5.422;2024-03-22T00:48:17;101829.03;;;10.56;100.00
64844;BME280;51310;52.198;5.422;2024-03-22T00:50:44;101822.13;;;10.52;100.00
64844;BME280;51310;52.198;5.422;2024-03-22T00:53:10;101822.19;;;10.50;100.00
64844;BME280;51310;52.198;5.422;2024-03-22T00:55:36;101812.44;;;10.49;100.00
64844;BME280;51310;52.198;5.422;2024-03-22T00:58:02;101810.69;;;10.48;100.00
64844;BME280;51310;52.198;5.422;2024-03-22T01:00:28;101813.44;;;10.47;100.00
64844;BME280;51310;52.198;5.422;2024-03-22T01:02:54;101817.63;;;10.52;100.00
64844;BME280;51310;52.198;5.422;2024-03-22T01:05:20;101824.56;;;10.56;100.00
64844;BME280;51310;52.198;5.422;2024-03-22T01:07:46;101813.31;;;10.50;100.00
64844;BME280;51310;52.198;5.422;2024-03-22T01:10:12;101803.53;;;10.49;100.00
64844;BME280;51310;52.198;5.422;2024-03-22T01:12:39;101806.66;;;10.58;100.00
64844;BME280;51310;52.198;5.422;2024-03-22T01:15:06;101810.53;;;10.51;100.00
64844;BME280;51310;52.198;5.422;2024-03-22T01:17:33;101816.34;;;10.61;100.00
64844;BME280;51310;52.198;5.422;2024-03-22T01:19:59;101821.75;;;10.59;100.00
64844;BME280;51310;52.198;5.422;2024-03-22T01:22:26;101820.66;;;10.63;100.00
64844;BME280;51310;52.198;5.422;2024-03-22T01:24:52;101790.75;;;10.55;100.00
64844;BME280;51310;52.198;5.422;2024-03-22T01:27:18;101802.28;;;10.56;100.00
64844;BME280;51310;52.198;5.422;2024-03-22T01:29:46;101800.88;;;10.68;100.00
64844;BME280;51310;52.198;5.422;2024-03-22T01:32:13;101794.44;;;10.72;100.00
64844;BME280;51310;52.198;5.422;2024-03-22T01:34:39;101799.63;;;10.75;100.00
64844;BME280;51310;52.198;5.422;2024-03-22T01:37:05;101786.97;;;10.78;100.00
64844;BME280;51310;52.198;5.422;2024-03-22T01:39:31;101796.78;;;10.78;100.00
64844;BME280;51310;52.198;5.422;2024-03-22T01:41:57;101771.81;;;10.79;100.00
64844;BME280;51310;52.198;5.422;2024-03-22T01:44:28;101783.94;;;10.86;100.00
64844;BME280;51310;52.198;5.422;2024-03-22T01:46:54;101786.03;;;10.79;100.00
64844;BME280;51310;52.198;5.422;2024-03-22T01:49:21;101786.97;;;10.78;100.00
64844;BME280;51310;52.198;5.422;2024-03-22T01:51:48;101770.22;;;10.75;100.00
64844;BME280;51310;52.198;5.422;2024-03-22T01:54:16;101776.34;;;10.77;100.00
64844;BME280;51310;52.198;5.422;2024-03-22T01:56:42;101772.25;;;10.70;100.00
64844;BME280;51310;52.198;5.422;2024-03-22T01:59:08;101777.59;;;10.70;100.00
64844;BME280;51310;52.198;5.422;2024-03-22T02:01:35;101774.13;;;10.68;100.00
64844;BME280;51310;52.198;5.422;2024-03-22T02:04:02;101779.31;;;10.71;100.00
64844;BME280;51310;52.198;5.422;2024-03-22T02:06:28;101786.88;;;10.80;100.00
64844;BME280;51310;52.198;5.422;2024-03-22T02:08:54;101775.41;;;10.78;100.00
64844;BME280;51310;52.198;5.422;2024-03-22T02:11:21;101787.19;;;10.74;100.00
64844;BME280;51310;52.198;5.422;2024-03-22T02:13:48;101767.03;;;10.67;100.00
64844;BME280;51310;52.198;5.422;2024-03-22T02:16:14;101771.13;;;10.74;100.00
64844;BME280;51310;52.198;5.422;2024-03-22T02:18:40;101773.06;;;10.72;100.00
64844;BME280;51310;52.198;5.422;2024-03-22T02:21:06;101763.28;;;10.71;100.00
64844;BME280;51310;52.198;5.422;2024-03-22T02:23:37;101767.59;;;10.73;100.00
64844;BME280;51310;52.198;5.422;2024-03-22T02:26:05;101736.22;;;10.59;100.00
64844;BME280;51310;52.198;5.422;2024-03-22T02:28:32;101753.59;;;10.68;100.00
64844;BME280;51310;52.198;5.422;2024-03-22T02:30:59;101751.78;;;10.69;100.00
64844;BME280;51310;52.198;5.422;2024-03-22T02:33:26;101747.06;;;10.74;100.00
64844;BME280;51310;52.198;5.422;2024-03-22T02:35:52;101729.94;;;10.60;100.00
64844;BME280;51310;52.198;5.422;2024-03-22T02:38:21;101738.59;;;10.66;100.00
64844;BME280;51310;52.198;5.422;2024-03-22T02:40:52;101730.00;;;10.59;100.00
64844;BME280;51310;52.198;5.422;2024-03-22T02:43:18;101734.25;;;10.63;100.00
64844;BME280;51310;52.198;5.422;2024-03-22T02:45:47;101728.13;;;10.61;100.00
64844;BME280;51310;52.198;5.422;2024-03-22T02:48:13;101713.47;;;10.51;100.00
64844;BME280;51310;52.198;5.422;2024-03-22T02:50:39;101723.84;;;10.57;100.00
64844;BME280;51310;52.198;5.422;2024-03-22T02:53:05;101718.81;;;10.51;100.00
64844;BME280;51310;52.198;5.422;2024-03-22T02:55:39;101690.81;;;10.40;100.00
64844;BME280;51310;52.198;5.422;2024-03-22T02:58:07;101698.59;;;10.45;100.00
64844;BME280;51310;52.198;5.422;2024-03-22T03:00:39;101693.31;;;10.44;100.00
64844;BME280;51310;52.198;5.422;2024-03-22T03:03:08;101682.00;;;10.38;100.00
64844;BME280;51310;52.198;5.422;2024-03-22T03:05:35;101673.19;;;10.36;100.00
64844;BME280;51310;52.198;5.422;2024-03-22T03:08:01;101653.31;;;10.23;100.00
64844;BME280;51310;52.198;5.422;2024-03-22T03:10:26;101651.50;;;10.24;100.00
64844;BME280;51310;52.198;5.422;2024-03-22T03:12:55;101644.69;;;10.18;100.00
64844;BME280;51310;52.198;5.422;2024-03-22T03:15:21;101665.03;;;10.20;100.00
64844;BME280;51310;52.198;5.422;2024-03-22T03:17:47;101662.78;;;10.30;100.00
64844;BME280;51310;52.198;5.422;2024-03-22T03:20:13;101650.72;;;10.21;100.00
64844;BME280;51310;52.198;5.422;2024-03-22T03:22:40;101656.16;;;10.20;100.00
64844;BME280;51310;52.198;5.422;2024-03-22T03:25:06;101632.91;;;10.03;100.00
64844;BME280;51310;52.198;5.422;2024-03-22T03:27:32;101648.50;;;10.12;100.00
64844;BME280;51310;52.198;5.422;2024-03-22T03:29:59;101656.44;;;10.14;100.00
64844;BME280;51310;52.198;5.422;2024-03-22T03:32:26;101639.56;;;10.13;100.00
64844;BME280;51310;52.198;5.422;2024-03-22T03:34:52;101619.50;;;10.05;100.00
64844;BME280;51310;52.198;5.422;2024-03-22T03:37:18;101628.16;;;10.10;100.00
64844;BME280;51310;52.198;5.422;2024-03-22T03:39:43;101630.88;;;10.08;100.00
64844;BME280;51310;52.198;5.422;2024-03-22T03:42:10;101611.47;;;10.05;100.00
64844;BME280;51310;52.198;5.422;2024-03-22T03:44:36;101609.97;;;9.99;100.00
64844;BME280;51310;52.198;5.422;2024-03-22T03:47:02;101604.63;;;9.99;100.00
64844;BME280;51310;52.198;5.422;2024-03-22T03:49:29;101612.56;;;10.00;100.00
64844;BME280;51310;52.198;5.422;2024-03-22T03:51:54;101611.78;;;9.98;100.00
64844;BME280;51310;52.198;5.422;2024-03-22T03:54:20;101620.50;;;10.02;100.00
64844;BME280;51310;52.198;5.422;2024-03-22T03:56:46;101619.00;;;9.96;100.00
64844;BME280;51310;52.198;5.422;2024-03-22T03:59:12;101595.41;;;9.87;100.00
64844;BME280;51310;52.198;5.422;2024-03-22T04:01:38;101615.47;;;9.96;100.00
64844;BME280;51310;52.198;5.422;2024-03-22T04:04:04;101611.84;;;9.97;100.00
64844;BME280;51310;52.198;5.422;2024-03-22T04:06:30;101608.38;;;9.95;100.00
64844;BME280;51310;52.198;5.422;2024-03-22T04:08:56;101599.09;;;9.85;100.00
64844;BME280;51310;52.198;5.422;2024-03-22T04:11:23;101613.00;;;9.91;100.00
64844;BME280;51310;52.198;5.422;2024-03-22T04:13:49;101611.66;;;9.83;100.00
64844;BME280;51310;52.198;5.422;2024-03-22T04:16:15;101615.59;;;9.93;100.00
64844;BME280;51310;52.198;5.422;2024-03-22T04:18:41;101600.97;;;9.83;100.00
64844;BME280;51310;52.198;5.422;2024-03-22T04:21:07;101599.22;;;9.82;100.00
64844;BME280;51310;52.198;5.422;2024-03-22T04:23:33;101610.47;;;9.88;100.00
64844;BME280;51310;52.198;5.422;2024-03-22T04:26:00;101593.81;;;9.83;100.00
64844;BME280;51310;52.198;5.422;2024-03-22T04:28:28;101586.88;;;9.79;100.00
64844;BME280;51310;52.198;5.422;2024-03-22T04:31:06;101597.34;;;9.84;100.00
64844;BME280;51310;52.198;5.422;2024-03-22T04:33:35;101603.47;;;9.86;100.00
64844;BME280;51310;52.198;5.422;2024-03-22T04:36:02;101613.28;;;9.85;100.00
64844;BME280;51310;52.198;5.422;2024-03-22T04:38:29;101608.97;;;9.83;100.00
64844;BME280;51310;52.198;5.422;2024-03-22T04:40:56;101586.31;;;9.72;100.00
64844;BME280;51310;52.198;5.422;2024-03-22T04:43:23;101583.56;;;9.74;100.00
64844;BME280;51310;52.198;5.422;2024-03-22T04:45:50;101585.22;;;9.76;100.00
64844;BME280;51310;52.198;5.422;2024-03-22T04:48:21;101588.91;;;9.74;100.00
64844;BME280;51310;52.198;5.422;2024-03-22T04:50:49;101590.78;;;9.72;100.00
64844;BME280;51310;52.198;5.422;2024-03-22T04:53:22;101598.72;;;9.73;100.00
64844;BME280;51310;52.198;5.422;2024-03-22T04:55:49;101613.53;;;9.80;100.00
64844;BME280;51310;52.198;5.422;2024-03-22T04:58:20;101597.44;;;9.82;100.00
64844;BME280;51310;52.198;5.422;2024-03-22T05:00:48;101606.25;;;9.84;100.00
64844;BME280;51310;52.198;5.422;2024-03-22T05:03:15;101608.97;;;9.83;100.00
64844;BME280;51310;52.198;5.422;2024-03-22T05:05:42;101602.09;;;9.77;100.00
64844;BME280;51310;52.198;5.422;2024-03-22T05:08:08;101590.56;;;9.76;100.00
64844;BME280;51310;52.198;5.422;2024-03-22T05:10:35;101612.44;;;9.85;100.00
64844;BME280;51310;52.198;5.422;2024-03-22T05:13:01;101603.63;;;9.83;100.00
64844;BME280;51310;52.198;5.422;2024-03-22T05:15:28;101606.16;;;9.86;100.00
64844;BME280;51310;52.198;5.422;2024-03-22T05:17:56;101593.25;;;9.76;100.00
64844;BME280;51310;52.198;5.422;2024-03-22T05:20:23;101600.31;;;9.77;100.00
64844;BME280;51310;52.198;5.422;2024-03-22T05:22:49;101601.03;;;9.81;100.00
64844;BME280;51310;52.198;5.422;2024-03-22T05:25:15;101597.50;;;9.80;100.00
64844;BME280;51310;52.198;5.422;2024-03-22T05:27:42;101609.13;;;9.79;100.00
64844;BME280;51310;52.198;5.422;2024-03-22T05:30:09;101596.06;;;9.73;100.00
64844;BME280;51310;52.198;5.422;2024-03-22T05:32:36;101584.75;;;9.68;100.00
64844;BME280;51310;52.198;5.422;2024-03-22T05:35:01;101592.03;;;9.65;100.00
64844;BME280;51310;52.198;5.422;2024-03-22T05:37:27;101581.78;;;9.55;100.00
64844;BME280;51310;52.198;5.422;2024-03-22T05:39:54;101586.91;;;9.60;100.00
64844;BME280;51310;52.198;5.422;2024-03-22T05:42:20;101586.25;;;9.55;100.00
64844;BME280;51310;52.198;5.422;2024-03-22T05:44:47;101572.34;;;9.48;100.00
64844;BME280;51310;52.198;5.422;2024-03-22T05:47:13;101572.25;;;9.50;100.00
64844;BME280;51310;52.198;5.422;2024-03-22T05:49:39;101578.53;;;9.49;100.00
64844;BME280;51310;52.198;5.422;2024-03-22T05:52:05;101571.53;;;9.46;100.00
64844;BME280;51310;52.198;5.422;2024-03-22T05:54:31;101575.34;;;9.41;100.00
64844;BME280;51310;52.198;5.422;2024-03-22T05:56:57;101572.47;;;9.45;100.00
64844;BME280;51310;52.198;5.422;2024-03-22T05:59:23;101565.53;;;9.41;100.00
64844;BME280;51310;52.198;5.422;2024-03-22T06:01:49;101561.22;;;9.38;100.00
64844;BME280;51310;52.198;5.422;2024-03-22T06:04:15;101555.97;;;9.37;100.00
64844;BME280;51310;52.198;5.422;2024-03-22T06:06:41;101558.91;;;9.31;100.00
64844;BME280;51310;52.198;5.422;2024-03-22T06:09:07;101575.34;;;9.41;100.00
64844;BME280;51310;52.198;5.422;2024-03-22T06:11:37;101542.97;;;9.29;100.00
64844;BME280;51310;52.198;5.422;2024-03-22T06:14:03;101552.41;;;9.36;100.00
64844;BME280;51310;52.198;5.422;2024-03-22T06:16:29;101566.00;;;9.51;100.00
64844;BME280;51310;52.198;5.422;2024-03-22T06:18:55;101553.56;;;9.50;100.00
64844;BME280;51310;52.198;5.422;2024-03-22T06:21:21;101561.50;;;9.51;100.00
64844;BME280;51310;52.198;5.422;2024-03-22T06:23:50;101559.56;;;9.55;100.00
64844;BME280;51310;52.198;5.422;2024-03-22T06:26:17;101540.00;;;9.54;100.00
64844;BME280;51310;52.198;5.422;2024-03-22T06:28:43;101561.66;;;9.67;100.00
64844;BME280;51310;52.198;5.422;2024-03-22T06:31:09;101558.69;;;9.73;100.00
64844;BME280;51310;52.198;5.422;2024-03-22T06:33:35;101552.69;;;9.87;100.00
64844;BME280;51310;52.198;5.422;2024-03-22T06:36:02;101562.34;;;9.90;100.00
64844;BME280;51310;52.198;5.422;2024-03-22T06:38:31;101552.75;;;9.86;100.00
64844;BME280;51310;52.198;5.422;2024-03-22T06:40:57;101557.88;;;9.90;100.00
64844;BME280;51310;52.198;5.422;2024-03-22T06:43:24;101565.53;;;9.98;100.00
64844;BME280;51310;52.198;5.422;2024-03-22T06:45:51;101560.00;;;10.01;100.00
64844;BME280;51310;52.198;5.422;2024-03-22T06:48:17;101553.09;;;9.97;100.00
64844;BME280;51310;52.198;5.422;2024-03-22T06:50:43;101541.31;;;10.01;100.00
64844;BME280;51310;52.198;5.422;2024-03-22T06:53:09;101532.06;;;9.91;100.00
64844;BME280;51310;52.198;5.422;2024-03-22T06:55:36;101544.16;;;9.98;100.00
64844;BME280;51310;52.198;5.422;2024-03-22T06:58:02;101548.88;;;10.10;100.00
64844;BME280;51310;52.198;5.422;2024-03-22T07:00:28;101561.44;;;10.08;100.00
64844;BME280;51310;52.198;5.422;2024-03-22T07:02:54;101545.91;;;10.16;100.00
64844;BME280;51310;52.198;5.422;2024-03-22T07:05:21;101555.63;;;10.17;100.00
64844;BME280;51310;52.198;5.422;2024-03-22T07:07:47;101552.03;;;10.18;100.00
64844;BME280;51310;52.198;5.422;2024-03-22T07:10:15;101557.94;;;10.25;100.00
64844;BME280;51310;52.198;5.422;2024-03-22T07:12:41;101537.03;;;10.16;100.00
64844;BME280;51310;52.198;5.422;2024-03-22T07:15:07;101539.47;;;10.20;100.00
64844;BME280;51310;52.198;5.422;2024-03-22T07:17:33;101550.66;;;10.29;100.00
64844;BME280;51310;52.198;5.422;2024-03-22T07:19:59;101552.34;;;10.31;100.00
64844;BME280;51310;52.198;5.422;2024-03-22T07:22:25;101550.13;;;10.39;100.00
64844;BME280;51310;52.198;5.422;2024-03-22T07:24:51;101538.03;;;10.32;100.00
64844;BME280;51310;52.198;5.422;2024-03-22T07:27:17;101541.00;;;10.44;100.00
64844;BME280;51310;52.198;5.422;2024-03-22T07:29:44;101537.78;;;10.37;100.00
64844;BME280;51310;52.198;5.422;2024-03-22T07:32:10;101545.19;;;10.49;100.00
64844;BME280;51310;52.198;5.422;2024-03-22T07:34:36;101542.50;;;10.49;100.00
64844;BME280;51310;52.198;5.422;2024-03-22T07:37:02;101549.56;;;10.33;100.00
64844;BME280;51310;52.198;5.422;2024-03-22T07:39:30;101553.56;;;10.41;100.00
64844;BME280;51310;52.198;5.422;2024-03-22T07:41:55;101551.75;;;10.42;100.00
64844;BME280;51310;52.198;5.422;2024-03-22T07:44:21;101510.31;;;10.16;100.00
64844;BME280;51310;52.198;5.422;2024-03-22T07:46:50;101547.38;;;10.41;100.00
64844;BME280;51310;52.198;5.422;2024-03-22T07:49:16;101543.69;;;10.44;100.00
64844;BME280;51310;52.198;5.422;2024-03-22T07:51:42;101543.06;;;10.38;100.00
64844;BME280;51310;52.198;5.422;2024-03-22T07:54:08;101542.25;;;10.36;100.00
64844;BME280;51310;52.198;5.422;2024-03-22T07:56:34;101528.22;;;10.14;100.00
64844;BME280;51310;52.198;5.422;2024-03-22T07:59:00;101554.84;;;10.15;100.00
64844;BME280;51310;52.198;5.422;2024-03-22T08:01:26;101547.28;;;10.06;100.00
64844;BME280;51310;52.198;5.422;2024-03-22T08:03:52;101544.78;;;10.03;100.00
64844;BME280;51310;52.198;5.422;2024-03-22T08:06:19;101544.63;;;10.06;100.00
64844;BME280;51310;52.198;5.422;2024-03-22T08:08:45;101552.34;;;10.12;100.00
64844;BME280;51310;52.198;5.422;2024-03-22T08:11:11;101547.72;;;10.16;100.00
64844;BME280;51310;52.198;5.422;2024-03-22T08:13:37;101523.44;;;10.03;100.00
64844;BME280;51310;52.198;5.422;2024-03-22T08:16:03;101553.75;;;10.19;100.00
64844;BME280;51310;52.198;5.422;2024-03-22T08:18:29;101544.81;;;10.20;100.00
64844;BME280;51310;52.198;5.422;2024-03-22T08:20:55;101547.31;;;10.24;100.00
64844;BME280;51310;52.198;5.422;2024-03-22T08:23:21;101538.44;;;10.23;100.00
64844;BME280;51310;52.198;5.422;2024-03-22T08:25:48;101549.84;;;10.27;100.00
64844;BME280;51310;52.198;5.422;2024-03-22T08:28:14;101545.59;;;10.23;100.00
64844;BME280;51310;52.198;5.422;2024-03-22T08:30:41;101554.66;;;10.20;100.00
64844;BME280;51310;52.198;5.422;2024-03-22T08:33:09;101549.16;;;10.04;100.00
64844;BME280;51310;52.198;5.422;2024-03-22T08:35:37;101550.75;;;9.91;100.00
64844;BME280;51310;52.198;5.422;2024-03-22T08:38:04;101548.22;;;9.88;100.00
64844;BME280;51310;52.198;5.422;2024-03-22T08:40:30;101548.38;;;9.85;100.00
64844;BME280;51310;52.198;5.422;2024-03-22T08:42:56;101543.25;;;9.80;100.00
64844;BME280;51310;52.198;5.422;2024-03-22T08:45:22;101540.72;;;9.77;100.00
64844;BME280;51310;52.198;5.422;2024-03-22T08:47:49;101528.47;;;9.73;100.00
64844;BME280;51310;52.198;5.422;2024-03-22T08:50:14;101527.53;;;9.74;100.00
64844;BME280;51310;52.198;5.422;2024-03-22T08:52:40;101543.94;;;9.84;100.00
64844;BME280;51310;52.198;5.422;2024-03-22T08:55:06;101534.06;;;9.86;100.00
64844;BME280;51310;52.198;5.422;2024-03-22T08:57:33;101544.50;;;9.90;100.00
64844;BME280;51310;52.198;5.422;2024-03-22T08:59:59;101541.28;;;9.84;100.00
64844;BME280;51310;52.198;5.422;2024-03-22T09:02:25;101541.66;;;9.76;100.00
64844;BME280;51310;52.198;5.422;2024-03-22T09:04:51;101536.84;;;9.65;100.00
64844;BME280;51310;52.198;5.422;2024-03-22T09:07:18;101556.16;;;9.70;100.00
64844;BME280;51310;52.198;5.422;2024-03-22T09:09:44;101550.81;;;9.70;100.00
64844;BME280;51310;52.198;5.422;2024-03-22T09:12:10;101550.69;;;9.73;100.00
64844;BME280;51310;52.198;5.422;2024-03-22T09:14:36;101534.16;;;9.65;100.00
64844;BME280;51310;52.198;5.422;2024-03-22T09:17:02;101542.03;;;9.68;100.00
64844;BME280;51310;52.198;5.422;2024-03-22T09:19:28;101537.56;;;9.69;100.00
64844;BME280;51310;52.198;5.422;2024-03-22T09:21:54;101542.63;;;9.75;100.00
64844;BME280;51310;52.198;5.422;2024-03-22T09:24:20;101551.25;;;9.80;100.00
64844;BME280;51310;52.198;5.422;2024-03-22T09:26:46;101536.91;;;9.83;100.00
64844;BME280;51310;52.198;5.422;2024-03-22T09:29:13;101536.38;;;9.74;100.00
64844;BME280;51310;52.198;5.422;2024-03-22T09:31:39;101542.53;;;9.76;100.00
64844;BME280;51310;52.198;5.422;2024-03-22T09:34:05;101538.34;;;9.71;100.00
64844;BME280;51310;52.198;5.422;2024-03-22T09:36:31;101528.91;;;9.64;100.00
64844;BME280;51310;52.198;5.422;2024-03-22T09:39:01;101533.94;;;9.70;100.00
64844;BME280;51310;52.198;5.422;2024-03-22T09:41:28;101527.47;;;9.56;100.00
64844;BME280;51310;52.198;5.422;2024-03-22T09:43:58;101525.59;;;9.58;100.00
64844;BME280;51310;52.198;5.422;2024-03-22T09:46:28;101533.09;;;9.69;100.00
64844;BME280;51310;52.198;5.422;2024-03-22T09:48:54;101533.31;;;9.65;100.00
64844;BME280;51310;52.198;5.422;2024-03-22T09:51:21;101542.63;;;9.75;100.00
64844;BME280;51310;52.198;5.422;2024-03-22T09:53:52;101545.34;;;9.73;100.00
64844;BME280;51310;52.198;5.422;2024-03-22T09:56:21;101533.25;;;9.66;100.00
64844;BME280;51310;52.198;5.422;2024-03-22T09:58:48;101540.13;;;9.70;100.00
64844;BME280;51310;52.198;5.422;2024-03-22T10:01:15;101525.25;;;9.66;100.00
64844;BME280;51310;52.198;5.422;2024-03-22T10:03:43;101538.13;;;9.75;100.00
64844;BME280;51310;52.198;5.422;2024-03-22T10:06:09;101532.47;;;9.82;100.00
64844;BME280;51310;52.198;5.422;2024-03-22T10:08:35;101524.34;;;9.85;100.00
64844;BME280;51310;52.198;5.422;2024-03-22T10:11:04;101527.56;;;9.91;100.00
64844;BME280;51310;52.198;5.422;2024-03-22T10:13:30;101518.69;;;9.91;100.00
64844;BME280;51310;52.198;5.422;2024-03-22T10:15:57;101530.47;;;9.87;100.00
64844;BME280;51310;52.198;5.422;2024-03-22T10:18:23;101517.34;;;9.82;100.00
64844;BME280;51310;52.198;5.422;2024-03-22T10:21:05;101515.47;;;9.84;100.00
64844;BME280;51310;52.198;5.422;2024-03-22T10:23:31;101517.69;;;9.93;100.00
64844;BME280;51310;52.198;5.422;2024-03-22T10:26:01;101514.63;;;10.01;100.00
64844;BME280;51310;52.198;5.422;2024-03-22T10:28:27;101522.47;;;10.04;100.00
64844;BME280;51310;52.198;5.422;2024-03-22T10:30:54;101519.72;;;10.06;100.00
64844;BME280;51310;52.198;5.422;2024-03-22T10:33:21;101507.56;;;10.00;100.00
64844;BME280;51310;52.198;5.422;2024-03-22T10:35:52;101503.59;;;9.90;100.00
64844;BME280;51310;52.198;5.422;2024-03-22T10:38:20;101503.09;;;9.82;100.00
64844;BME280;51310;52.198;5.422;2024-03-22T10:40:48;101524.69;;;9.96;100.00
64844;BME280;51310;52.198;5.422;2024-03-22T10:43:15;101521.94;;;9.97;100.00
64844;BME280;51310;52.198;5.422;2024-03-22T10:45:42;101516.78;;;9.93;100.00
64844;BME280;51310;52.198;5.422;2024-03-22T10:48:11;101523.66;;;9.98;100.00
64844;BME280;51310;52.198;5.422;2024-03-22T10:50:41;101522.34;;;10.07;100.00
64844;BME280;51310;52.198;5.422;2024-03-22T10:53:15;101527.19;;;9.99;100.00
64844;BME280;51310;52.198;5.422;2024-03-22T10:55:47;101512.25;;;9.95;100.00
64844;BME280;51310;52.198;5.422;2024-03-22T10:58:24;101522.78;;;9.98;100.00
64844;BME280;51310;52.198;5.422;2024-03-22T11:00:54;101521.38;;;9.91;100.00
64844;BME280;51310;52.198;5.422;2024-03-22T11:03:23;101506.50;;;9.85;100.00
64844;BME280;51310;52.198;5.422;2024-03-22T11:05:56;101525.00;;;10.07;100.00
64844;BME280;51310;52.198;5.422;2024-03-22T11:08:27;101517.91;;;10.06;100.00
64844;BME280;51310;52.198;5.422;2024-03-22T11:10:56;101515.19;;;10.08;100.00
64844;BME280;51310;52.198;5.422;2024-03-22T11:13:23;101491.75;;;10.13;100.00
64844;BME280;51310;52.198;5.422;2024-03-22T11:15:51;101496.25;;;10.12;100.00
64844;BME280;51310;52.198;5.422;2024-03-22T11:18:18;101513.00;;;10.16;100.00
64844;BME280;51310;52.198;5.422;2024-03-22T11:20:44;101507.56;;;10.17;100.00
64844;BME280;51310;52.198;5.422;2024-03-22T11:23:10;101495.47;;;10.10;100.00
64844;BME280;51310;52.198;5.422;2024-03-22T11:25:36;101503.09;;;10.18;100.00
64844;BME280;51310;52.198;5.422;2024-03-22T11:28:03;101490.53;;;10.20;100.00
64844;BME280;51310;52.198;5.422;2024-03-22T11:30:32;101488.72;;;10.20;100.00
64844;BME280;51310;52.198;5.422;2024-03-22T11:33:03;101498.81;;;10.33;100.00
64844;BME280;51310;52.198;5.422;2024-03-22T11:35:31;101488.06;;;10.15;100.00
64844;BME280;51310;52.198;5.422;2024-03-22T11:37:57;101487.94;;;10.18;100.00
64844;BME280;51310;52.198;5.422;2024-03-22T11:40:26;101475.66;;;10.14;100.00
64844;BME280;51310;52.198;5.422;2024-03-22T11:42:54;101485.03;;;10.23;100.00
64844;BME280;51310;52.198;5.422;2024-03-22T11:45:23;101486.34;;;10.14;100.00
64844;BME280;51310;52.198;5.422;2024-03-22T11:47:50;101486.28;;;10.16;100.00
64844;BME280;51310;52.198;5.422;2024-03-22T11:50:16;101478.91;;;10.21;100.00
64844;BME280;51310;52.198;5.422;2024-03-22T11:52:44;101463.41;;;10.10;100.00
64844;BME280;51310;52.198;5.422;2024-03-22T11:55:13;101486.75;;;10.24;100.00
64844;BME280;51310;52.198;5.422;2024-03-22T11:57:40;101476.00;;;10.26;100.00
64844;BME280;51310;52.198;5.422;2024-03-22T12:00:07;101469.78;;;10.25;100.00
64844;BME280;51310;52.198;5.422;2024-03-22T12:02:38;101471.75;;;10.21;100.00
64844;BME280;51310;52.198;5.422;2024-03-22T12:05:05;101461.84;;;10.06;100.00
64844;BME280;51310;52.198;5.422;2024-03-22T12:07:31;101475.84;;;10.11;100.00
64844;BME280;51310;52.198;5.422;2024-03-22T12:10:00;101470.81;;;10.23;100.00
64844;BME280;51310;52.198;5.422;2024-03-22T12:12:26;101469.84;;;10.06;100.00
64844;BME280;51310;52.198;5.422;2024-03-22T12:14:52;101467.81;;;10.11;100.00
64844;BME280;51310;52.198;5.422;2024-03-22T12:17:18;101459.09;;;10.08;100.00
64844;BME280;51310;52.198;5.422;2024-03-22T12:19:45;101446.03;;;10.01;100.00
64844;BME280;51310;52.198;5.422;2024-03-22T12:22:10;101461.03;;;10.04;100.00
64844;BME280;51310;52.198;5.422;2024-03-22T12:24:37;101463.59;;;10.07;100.00
64844;BME280;51310;52.198;5.422;2024-03-22T12:27:03;101462.56;;;10.10;100.00
64844;BME280;51310;52.198;5.422;2024-03-22T12:29:32;101470.31;;;9.97;100.00
64844;BME280;51310;52.198;5.422;2024-03-22T12:31:59;101464.53;;;9.89;100.00
64844;BME280;51310;52.198;5.422;2024-03-22T12:34:27;101445.63;;;9.74;100.00
64844;BME280;51310;52.198;5.422;2024-03-22T12:36:55;101452.78;;;9.74;100.00
64844;BME280;51310;52.198;5.422;2024-03-22T12:39:21;101435.41;;;9.65;100.00
64844;BME280;51310;52.198;5.422;2024-03-22T12:41:48;101440.16;;;9.77;100.00
64844;BME280;51310;52.198;5.422;2024-03-22T12:44:14;101442.03;;;9.75;100.00